sensor_id;sensor_type;location;lat;lon;timestamp;P1;durP1;ratioP1;P2;durP2;ratioP2
5171;SDS011;2605;49.770;9.868;2022-08-11T00:00:36;4.50;;;4.20;;
5171;SDS011;2605;49.770;9.868;2022-08-11T00:03:11;6.43;;;4.23;;
5171;SDS011;2605;49.770;9.868;2022-08-11T00:05:44;4.20;;;3.90;;
5171;SDS011;2605;49.770;9.868;2022-08-11T00:08:22;4.53;;;3.93;;
5171;SDS011;2605;49.770;9.868;2022-08-11T00:10:52;5.70;;;4.00;;
5171;SDS011;2605;49.770;9.868;2022-08-11T00:13:21;8.00;;;4.50;;
5171;SDS011;2605;49.770;9.868;2022-08-11T00:15:54;7.30;;;5.00;;
5171;SDS011;2605;49.770;9.868;2022-08-11T00:18:21;6.00;;;4.50;;
5171;SDS011;2605;49.770;9.868;2022-08-11T00:20:47;6.50;;;3.97;;
5171;SDS011;2605;49.770;9.868;2022-08-11T00:23:15;4.60;;;4.30;;
5171;SDS011;2605;49.770;9.868;2022-08-11T00:25:43;5.00;;;4.50;;
5171;SDS011;2605;49.770;9.868;2022-08-11T00:28:23;4.90;;;4.10;;
5171;SDS011;2605;49.770;9.868;2022-08-11T00:30:50;6.40;;;4.80;;
5171;SDS011;2605;49.770;9.868;2022-08-11T00:33:17;6.10;;;3.80;;
5171;SDS011;2605;49.770;9.868;2022-08-11T00:35:46;4.13;;;3.93;;
5171;SDS011;2605;49.770;9.868;2022-08-11T00:38:15;4.30;;;4.00;;
5171;SDS011;2605;49.770;9.868;2022-08-11T00:40:58;4.50;;;4.10;;
5171;SDS011;2605;49.770;9.868;2022-08-11T00:46:48;4.10;;;3.70;;
5171;SDS011;2605;49.770;9.868;2022-08-11T00:49:29;8.23;;;4.47;;
5171;SDS011;2605;49.770;9.868;2022-08-11T00:52:09;5.10;;;3.87;;
5171;SDS011;2605;49.770;9.868;2022-08-11T00:58:22;9.13;;;5.10;;
5171;SDS011;2605;49.770;9.868;2022-08-11T01:12:38;4.40;;;4.07;;
5171;SDS011;2605;49.770;9.868;2022-08-11T01:34:47;6.27;;;4.70;;
5171;SDS011;2605;49.770;9.868;2022-08-11T01:37:57;7.87;;;4.43;;
5171;SDS011;2605;49.770;9.868;2022-08-11T01:46:46;6.17;;;4.60;;
5171;SDS011;2605;49.770;9.868;2022-08-11T01:52:23;5.00;;;4.47;;
5171;SDS011;2605;49.770;9.868;2022-08-11T01:55:02;8.47;;;4.30;;
5171;SDS011;2605;49.770;9.868;2022-08-11T01:57:43;6.37;;;4.10;;
5171;SDS011;2605;49.770;9.868;2022-08-11T02:00:30;4.77;;;4.47;;
5171;SDS011;2605;49.770;9.868;2022-08-11T02:03:11;4.70;;;4.30;;
5171;SDS011;2605;49.770;9.868;2022-08-11T02:09:12;4.57;;;4.27;;
5171;SDS011;2605;49.770;9.868;2022-08-11T02:11:45;7.20;;;5.10;;
5171;SDS011;2605;49.770;9.868;2022-08-11T02:14:30;4.40;;;4.00;;
5171;SDS011;2605;49.770;9.868;2022-08-11T02:19:51;5.47;;;4.97;;
5171;SDS011;2605;49.770;9.868;2022-08-11T02:25:51;6.03;;;4.40;;
5171;SDS011;2605;49.770;9.868;2022-08-11T02:28:22;6.90;;;4.60;;
5171;SDS011;2605;49.770;9.868;2022-08-11T02:33:46;4.73;;;4.20;;
5171;SDS011;2605;49.770;9.868;2022-08-11T02:36:21;5.27;;;4.10;;
5171;SDS011;2605;49.770;9.868;2022-08-11T02:39:05;4.90;;;4.50;;
5171;SDS011;2605;49.770;9.868;2022-08-11T02:41:51;4.67;;;4.03;;
5171;SDS011;2605;49.770;9.868;2022-08-11T02:47:31;5.50;;;5.00;;
5171;SDS011;2605;49.770;9.868;2022-08-11T02:50:46;5.50;;;5.03;;
5171;SDS011;2605;49.770;9.868;2022-08-11T02:53:42;5.50;;;5.00;;
5171;SDS011;2605;49.770;9.868;2022-08-11T02:56:20;7.33;;;5.00;;
5171;SDS011;2605;49.770;9.868;2022-08-11T03:07:40;5.70;;;4.63;;
5171;SDS011;2605;49.770;9.868;2022-08-11T03:13:03;4.60;;;4.10;;
5171;SDS011;2605;49.770;9.868;2022-08-11T03:16:11;5.27;;;4.87;;
5171;SDS011;2605;49.770;9.868;2022-08-11T03:19:25;4.43;;;4.03;;
5171;SDS011;2605;49.770;9.868;2022-08-11T03:22:24;7.00;;;4.53;;
5171;SDS011;2605;49.770;9.868;2022-08-11T03:25:11;4.83;;;4.43;;
5171;SDS011;2605;49.770;9.868;2022-08-11T03:27:53;5.17;;;4.57;;
5171;SDS011;2605;49.770;9.868;2022-08-11T03:33:30;9.93;;;4.60;;
5171;SDS011;2605;49.770;9.868;2022-08-11T03:36:22;5.87;;;4.97;;
5171;SDS011;2605;49.770;9.868;2022-08-11T03:39:28;5.10;;;4.60;;
5171;SDS011;2605;49.770;9.868;2022-08-11T03:52:43;4.67;;;4.27;;
5171;SDS011;2605;49.770;9.868;2022-08-11T03:55:24;4.47;;;4.10;;
5171;SDS011;2605;49.770;9.868;2022-08-11T03:58:27;5.13;;;4.73;;
5171;SDS011;2605;49.770;9.868;2022-08-11T04:01:12;4.97;;;4.50;;
5171;SDS011;2605;49.770;9.868;2022-08-11T04:09:40;8.17;;;4.90;;
5171;SDS011;2605;49.770;9.868;2022-08-11T04:12:21;5.30;;;4.90;;
5171;SDS011;2605;49.770;9.868;2022-08-11T04:15:32;9.20;;;4.73;;
5171;SDS011;2605;49.770;9.868;2022-08-11T04:21:50;5.13;;;4.73;;
5171;SDS011;2605;49.770;9.868;2022-08-11T04:24:25;5.33;;;4.83;;
5171;SDS011;2605;49.770;9.868;2022-08-11T04:27:21;6.33;;;4.63;;
5171;SDS011;2605;49.770;9.868;2022-08-11T04:29:54;5.70;;;5.20;;
5171;SDS011;2605;49.770;9.868;2022-08-11T04:32:30;5.67;;;5.17;;
5171;SDS011;2605;49.770;9.868;2022-08-11T04:52:39;6.07;;;5.47;;
5171;SDS011;2605;49.770;9.868;2022-08-11T04:55:43;4.93;;;4.43;;
5171;SDS011;2605;49.770;9.868;2022-08-11T04:58:51;6.70;;;4.53;;
5171;SDS011;2605;49.770;9.868;2022-08-11T05:04:50;5.00;;;4.63;;
5171;SDS011;2605;49.770;9.868;2022-08-11T05:07:50;5.63;;;4.57;;
5171;SDS011;2605;49.770;9.868;2022-08-11T05:10:46;5.03;;;4.63;;
5171;SDS011;2605;49.770;9.868;2022-08-11T05:13:32;5.50;;;5.00;;
5171;SDS011;2605;49.770;9.868;2022-08-11T05:16:30;5.37;;;4.90;;
5171;SDS011;2605;49.770;9.868;2022-08-11T05:19:32;5.57;;;5.00;;
5171;SDS011;2605;49.770;9.868;2022-08-11T05:22:17;5.13;;;4.73;;
5171;SDS011;2605;49.770;9.868;2022-08-11T05:25:06;7.80;;;4.70;;
5171;SDS011;2605;49.770;9.868;2022-08-11T05:27:57;6.00;;;4.30;;
5171;SDS011;2605;49.770;9.868;2022-08-11T05:30:47;4.20;;;3.93;;
5171;SDS011;2605;49.770;9.868;2022-08-11T05:33:41;4.90;;;4.50;;
5171;SDS011;2605;49.770;9.868;2022-08-11T05:36:30;8.97;;;4.77;;
5171;SDS011;2605;49.770;9.868;2022-08-11T05:39:01;4.63;;;4.23;;
5171;SDS011;2605;49.770;9.868;2022-08-11T05:41:47;9.17;;;5.57;;
5171;SDS011;2605;49.770;9.868;2022-08-11T05:44:33;4.80;;;4.40;;
5171;SDS011;2605;49.770;9.868;2022-08-11T05:47:21;4.57;;;4.17;;
5171;SDS011;2605;49.770;9.868;2022-08-11T05:50:08;4.83;;;4.40;;
5171;SDS011;2605;49.770;9.868;2022-08-11T05:52:57;4.27;;;3.87;;
5171;SDS011;2605;49.770;9.868;2022-08-11T05:55:42;4.80;;;4.40;;
5171;SDS011;2605;49.770;9.868;2022-08-11T05:58:31;6.77;;;4.90;;
5171;SDS011;2605;49.770;9.868;2022-08-11T06:00:58;5.33;;;4.77;;
5171;SDS011;2605;49.770;9.868;2022-08-11T06:03:26;5.03;;;4.53;;
5171;SDS011;2605;49.770;9.868;2022-08-11T06:05:53;5.00;;;4.57;;
5171;SDS011;2605;49.770;9.868;2022-08-11T06:08:32;4.50;;;4.17;;
5171;SDS011;2605;49.770;9.868;2022-08-11T06:11:00;7.77;;;4.53;;
5171;SDS011;2605;49.770;9.868;2022-08-11T06:13:29;4.70;;;4.30;;
5171;SDS011;2605;49.770;9.868;2022-08-11T06:15:56;5.50;;;5.00;;
5171;SDS011;2605;49.770;9.868;2022-08-11T06:18:23;6.70;;;4.43;;
5171;SDS011;2605;49.770;9.868;2022-08-11T06:20:53;5.00;;;4.50;;
5171;SDS011;2605;49.770;9.868;2022-08-11T06:23:21;4.33;;;4.03;;
5171;SDS011;2605;49.770;9.868;2022-08-11T06:25:48;6.53;;;4.40;;
5171;SDS011;2605;49.770;9.868;2022-08-11T06:28:17;5.20;;;4.80;;
5171;SDS011;2605;49.770;9.868;2022-08-11T06:30:54;5.30;;;4.00;;
5171;SDS011;2605;49.770;9.868;2022-08-11T06:33:29;5.13;;;4.20;;
5171;SDS011;2605;49.770;9.868;2022-08-11T06:36:03;9.10;;;4.83;;
5171;SDS011;2605;49.770;9.868;2022-08-11T06:41:26;6.20;;;4.13;;
5171;SDS011;2605;49.770;9.868;2022-08-11T06:46:39;4.70;;;4.30;;
5171;SDS011;2605;49.770;9.868;2022-08-11T06:49:06;4.87;;;4.40;;
5171;SDS011;2605;49.770;9.868;2022-08-11T06:51:53;4.27;;;3.87;;
5171;SDS011;2605;49.770;9.868;2022-08-11T06:54:20;4.40;;;4.00;;
5171;SDS011;2605;49.770;9.868;2022-08-11T06:56:47;5.37;;;4.07;;
5171;SDS011;2605;49.770;9.868;2022-08-11T06:59:33;5.40;;;4.60;;
5171;SDS011;2605;49.770;9.868;2022-08-11T07:02:42;4.77;;;4.27;;
5171;SDS011;2605;49.770;9.868;2022-08-11T07:05:19;5.37;;;3.43;;
5171;SDS011;2605;49.770;9.868;2022-08-11T07:14:25;9.17;;;4.23;;
5171;SDS011;2605;49.770;9.868;2022-08-11T07:17:14;4.53;;;4.20;;
5171;SDS011;2605;49.770;9.868;2022-08-11T07:19:49;5.17;;;4.77;;
5171;SDS011;2605;49.770;9.868;2022-08-11T07:22:35;6.53;;;4.23;;
5171;SDS011;2605;49.770;9.868;2022-08-11T07:25:33;4.37;;;4.07;;
5171;SDS011;2605;49.770;9.868;2022-08-11T07:28:22;5.23;;;4.83;;
5171;SDS011;2605;49.770;9.868;2022-08-11T07:31:09;5.53;;;4.10;;
5171;SDS011;2605;49.770;9.868;2022-08-11T07:33:43;4.50;;;4.10;;
5171;SDS011;2605;49.770;9.868;2022-08-11T07:36:11;6.33;;;4.97;;
5171;SDS011;2605;49.770;9.868;2022-08-11T07:38:40;5.87;;;4.73;;
5171;SDS011;2605;49.770;9.868;2022-08-11T07:41:19;4.93;;;4.60;;
5171;SDS011;2605;49.770;9.868;2022-08-11T07:43:48;5.23;;;4.73;;
5171;SDS011;2605;49.770;9.868;2022-08-11T07:46:19;4.30;;;4.00;;
5171;SDS011;2605;49.770;9.868;2022-08-11T07:49:05;4.57;;;4.17;;
5171;SDS011;2605;49.770;9.868;2022-08-11T07:51:52;7.40;;;4.00;;
5171;SDS011;2605;49.770;9.868;2022-08-11T07:54:36;4.77;;;4.47;;
5171;SDS011;2605;49.770;9.868;2022-08-11T07:57:03;4.10;;;3.80;;
5171;SDS011;2605;49.770;9.868;2022-08-11T07:59:50;4.37;;;3.97;;
5171;SDS011;2605;49.770;9.868;2022-08-11T08:02:36;9.00;;;3.60;;
5171;SDS011;2605;49.770;9.868;2022-08-11T08:05:20;9.30;;;4.10;;
5171;SDS011;2605;49.770;9.868;2022-08-11T08:08:06;5.23;;;3.70;;
5171;SDS011;2605;49.770;9.868;2022-08-11T08:10:52;5.17;;;3.93;;
5171;SDS011;2605;49.770;9.868;2022-08-11T08:13:38;7.90;;;4.87;;
5171;SDS011;2605;49.770;9.868;2022-08-11T08:16:24;4.40;;;4.00;;
5171;SDS011;2605;49.770;9.868;2022-08-11T08:19:12;4.70;;;4.30;;
5171;SDS011;2605;49.770;9.868;2022-08-11T08:21:39;7.53;;;4.50;;
5171;SDS011;2605;49.770;9.868;2022-08-11T08:24:06;5.73;;;3.90;;
5171;SDS011;2605;49.770;9.868;2022-08-11T08:26:31;7.90;;;4.13;;
5171;SDS011;2605;49.770;9.868;2022-08-11T08:29:30;4.17;;;3.87;;
5171;SDS011;2605;49.770;9.868;2022-08-11T08:32:17;4.30;;;3.27;;
5171;SDS011;2605;49.770;9.868;2022-08-11T08:34:44;7.60;;;3.50;;
5171;SDS011;2605;49.770;9.868;2022-08-11T08:37:11;4.20;;;3.73;;
5171;SDS011;2605;49.770;9.868;2022-08-11T08:39:37;3.70;;;3.40;;
5171;SDS011;2605;49.770;9.868;2022-08-11T08:42:10;3.33;;;3.13;;
5171;SDS011;2605;49.770;9.868;2022-08-11T08:44:41;3.73;;;3.43;;
5171;SDS011;2605;49.770;9.868;2022-08-11T08:47:14;3.77;;;3.47;;
5171;SDS011;2605;49.770;9.868;2022-08-11T08:49:47;5.93;;;3.80;;
5171;SDS011;2605;49.770;9.868;2022-08-11T08:52:16;4.70;;;4.30;;
5171;SDS011;2605;49.770;9.868;2022-08-11T08:54:44;3.97;;;3.67;;
5171;SDS011;2605;49.770;9.868;2022-08-11T08:57:12;4.10;;;3.70;;
5171;SDS011;2605;49.770;9.868;2022-08-11T08:59:40;3.60;;;3.40;;
5171;SDS011;2605;49.770;9.868;2022-08-11T09:02:08;3.90;;;3.70;;
5171;SDS011;2605;49.770;9.868;2022-08-11T09:04:37;3.40;;;3.20;;
5171;SDS011;2605;49.770;9.868;2022-08-11T09:07:08;4.27;;;4.00;;
5171;SDS011;2605;49.770;9.868;2022-08-11T09:09:49;5.20;;;3.73;;
5171;SDS011;2605;49.770;9.868;2022-08-11T09:12:19;4.07;;;3.73;;
5171;SDS011;2605;49.770;9.868;2022-08-11T09:14:47;6.67;;;3.60;;
5171;SDS011;2605;49.770;9.868;2022-08-11T09:17:34;4.40;;;4.00;;
5171;SDS011;2605;49.770;9.868;2022-08-11T09:20:07;7.93;;;3.60;;
5171;SDS011;2605;49.770;9.868;2022-08-11T09:22:34;7.97;;;4.50;;
5171;SDS011;2605;49.770;9.868;2022-08-11T09:25:20;3.97;;;3.67;;
5171;SDS011;2605;49.770;9.868;2022-08-11T09:28:11;4.63;;;4.23;;
5171;SDS011;2605;49.770;9.868;2022-08-11T09:30:42;5.07;;;4.13;;
5171;SDS011;2605;49.770;9.868;2022-08-11T09:33:11;3.77;;;3.57;;
5171;SDS011;2605;49.770;9.868;2022-08-11T09:35:39;6.20;;;4.10;;
5171;SDS011;2605;49.770;9.868;2022-08-11T09:38:10;7.93;;;5.30;;
5171;SDS011;2605;49.770;9.868;2022-08-11T09:40:56;5.70;;;4.00;;
5171;SDS011;2605;49.770;9.868;2022-08-11T09:43:23;4.30;;;4.00;;
5171;SDS011;2605;49.770;9.868;2022-08-11T09:46:09;4.53;;;4.13;;
5171;SDS011;2605;49.770;9.868;2022-08-11T09:48:37;4.27;;;3.97;;
5171;SDS011;2605;49.770;9.868;2022-08-11T09:51:06;6.70;;;3.40;;
5171;SDS011;2605;49.770;9.868;2022-08-11T09:53:37;15.93;;;6.30;;
5171;SDS011;2605;49.770;9.868;2022-08-11T09:56:06;13.30;;;6.20;;
5171;SDS011;2605;49.770;9.868;2022-08-11T09:59:00;9.53;;;5.23;;
5171;SDS011;2605;49.770;9.868;2022-08-11T10:01:36;13.20;;;6.10;;
5171;SDS011;2605;49.770;9.868;2022-08-11T10:04:16;11.37;;;5.00;;
5171;SDS011;2605;49.770;9.868;2022-08-11T10:06:51;4.97;;;4.23;;
5171;SDS011;2605;49.770;9.868;2022-08-11T10:09:28;4.50;;;3.43;;
5171;SDS011;2605;49.770;9.868;2022-08-11T10:12:00;3.63;;;3.43;;
5171;SDS011;2605;49.770;9.868;2022-08-11T10:14:28;3.57;;;3.37;;
5171;SDS011;2605;49.770;9.868;2022-08-11T10:17:15;4.17;;;3.77;;
5171;SDS011;2605;49.770;9.868;2022-08-11T10:19:42;4.90;;;4.47;;
5171;SDS011;2605;49.770;9.868;2022-08-11T10:22:11;4.33;;;4.03;;
5171;SDS011;2605;49.770;9.868;2022-08-11T10:24:58;3.37;;;3.13;;
5171;SDS011;2605;49.770;9.868;2022-08-11T10:27:43;4.03;;;3.63;;
5171;SDS011;2605;49.770;9.868;2022-08-11T10:30:09;4.20;;;3.40;;
5171;SDS011;2605;49.770;9.868;2022-08-11T10:32:54;3.50;;;3.30;;
5171;SDS011;2605;49.770;9.868;2022-08-11T10:35:41;3.60;;;3.40;;
5171;SDS011;2605;49.770;9.868;2022-08-11T10:38:09;4.17;;;3.87;;
5171;SDS011;2605;49.770;9.868;2022-08-11T10:40:37;5.43;;;3.60;;
5171;SDS011;2605;49.770;9.868;2022-08-11T10:43:04;3.87;;;3.57;;
5171;SDS011;2605;49.770;9.868;2022-08-11T10:45:35;3.47;;;3.17;;
5171;SDS011;2605;49.770;9.868;2022-08-11T10:48:21;3.43;;;3.13;;
5171;SDS011;2605;49.770;9.868;2022-08-11T10:50:49;3.50;;;3.30;;
5171;SDS011;2605;49.770;9.868;2022-08-11T10:53:34;3.77;;;3.47;;
5171;SDS011;2605;49.770;9.868;2022-08-11T10:56:21;3.13;;;2.97;;
5171;SDS011;2605;49.770;9.868;2022-08-11T10:59:06;3.10;;;3.00;;
5171;SDS011;2605;49.770;9.868;2022-08-11T11:01:34;5.77;;;3.70;;
5171;SDS011;2605;49.770;9.868;2022-08-11T11:04:07;5.40;;;3.30;;
5171;SDS011;2605;49.770;9.868;2022-08-11T11:07:02;3.07;;;2.87;;
5171;SDS011;2605;49.770;9.868;2022-08-11T11:09:33;2.90;;;2.70;;
5171;SDS011;2605;49.770;9.868;2022-08-11T11:15:07;4.13;;;3.83;;
5171;SDS011;2605;49.770;9.868;2022-08-11T11:17:54;3.80;;;3.17;;
5171;SDS011;2605;49.770;9.868;2022-08-11T11:20:28;4.83;;;3.53;;
5171;SDS011;2605;49.770;9.868;2022-08-11T11:31:29;3.97;;;3.50;;
5171;SDS011;2605;49.770;9.868;2022-08-11T11:36:53;3.60;;;3.30;;
5171;SDS011;2605;49.770;9.868;2022-08-11T11:39:22;4.03;;;3.67;;
5171;SDS011;2605;49.770;9.868;2022-08-11T11:41:51;3.07;;;2.83;;
5171;SDS011;2605;49.770;9.868;2022-08-11T11:44:18;3.40;;;3.03;;
5171;SDS011;2605;49.770;9.868;2022-08-11T11:46:46;2.93;;;2.83;;
5171;SDS011;2605;49.770;9.868;2022-08-11T11:49:13;3.30;;;2.63;;
5171;SDS011;2605;49.770;9.868;2022-08-11T11:51:42;3.30;;;3.10;;
5171;SDS011;2605;49.770;9.868;2022-08-11T11:54:09;3.10;;;2.90;;
5171;SDS011;2605;49.770;9.868;2022-08-11T11:56:37;3.67;;;3.37;;
5171;SDS011;2605;49.770;9.868;2022-08-11T11:59:04;2.83;;;2.73;;
5171;SDS011;2605;49.770;9.868;2022-08-11T12:01:49;3.27;;;3.00;;
5171;SDS011;2605;49.770;9.868;2022-08-11T12:04:16;9.47;;;3.00;;
5171;SDS011;2605;49.770;9.868;2022-08-11T12:06:44;5.30;;;3.33;;
5171;SDS011;2605;49.770;9.868;2022-08-11T12:09:11;3.63;;;3.30;;
5171;SDS011;2605;49.770;9.868;2022-08-11T12:11:42;3.30;;;3.10;;
5171;SDS011;2605;49.770;9.868;2022-08-11T12:14:27;3.43;;;2.73;;
5171;SDS011;2605;49.770;9.868;2022-08-11T12:16:54;3.43;;;3.23;;
5171;SDS011;2605;49.770;9.868;2022-08-11T12:19:22;3.60;;;3.40;;
5171;SDS011;2605;49.770;9.868;2022-08-11T12:21:50;6.40;;;3.23;;
5171;SDS011;2605;49.770;9.868;2022-08-11T12:24:37;30.90;;;5.90;;
5171;SDS011;2605;49.770;9.868;2022-08-11T12:27:22;8.80;;;3.97;;
5171;SDS011;2605;49.770;9.868;2022-08-11T12:29:50;8.53;;;3.87;;
5171;SDS011;2605;49.770;9.868;2022-08-11T12:32:30;4.27;;;2.97;;
5171;SDS011;2605;49.770;9.868;2022-08-11T12:34:57;6.30;;;3.40;;
5171;SDS011;2605;49.770;9.868;2022-08-11T12:37:29;10.37;;;3.40;;
5171;SDS011;2605;49.770;9.868;2022-08-11T12:40:06;3.10;;;2.80;;
5171;SDS011;2605;49.770;9.868;2022-08-11T12:42:54;3.30;;;3.10;;
5171;SDS011;2605;49.770;9.868;2022-08-11T12:45:42;8.47;;;3.60;;
5171;SDS011;2605;49.770;9.868;2022-08-11T12:48:10;2.90;;;2.70;;
5171;SDS011;2605;49.770;9.868;2022-08-11T12:51:08;3.00;;;2.70;;
5171;SDS011;2605;49.770;9.868;2022-08-11T12:54:01;5.63;;;2.87;;
5171;SDS011;2605;49.770;9.868;2022-08-11T12:56:36;2.57;;;2.47;;
5171;SDS011;2605;49.770;9.868;2022-08-11T12:59:22;3.13;;;2.87;;
5171;SDS011;2605;49.770;9.868;2022-08-11T13:02:08;3.73;;;2.70;;
5171;SDS011;2605;49.770;9.868;2022-08-11T13:04:58;2.60;;;2.40;;
5171;SDS011;2605;49.770;9.868;2022-08-11T13:07:26;3.47;;;2.90;;
5171;SDS011;2605;49.770;9.868;2022-08-11T13:09:53;2.87;;;2.67;;
5171;SDS011;2605;49.770;9.868;2022-08-11T13:12:19;2.90;;;2.80;;
5171;SDS011;2605;49.770;9.868;2022-08-11T13:15:06;3.03;;;2.83;;
5171;SDS011;2605;49.770;9.868;2022-08-11T13:17:34;4.83;;;2.70;;
5171;SDS011;2605;49.770;9.868;2022-08-11T13:20:01;4.10;;;2.80;;
5171;SDS011;2605;49.770;9.868;2022-08-11T13:22:28;4.00;;;3.50;;
5171;SDS011;2605;49.770;9.868;2022-08-11T13:24:54;2.77;;;2.50;;
5171;SDS011;2605;49.770;9.868;2022-08-11T13:27:21;3.17;;;2.97;;
5171;SDS011;2605;49.770;9.868;2022-08-11T13:29:47;4.00;;;3.30;;
5171;SDS011;2605;49.770;9.868;2022-08-11T13:32:14;5.70;;;3.10;;
5171;SDS011;2605;49.770;9.868;2022-08-11T13:34:40;3.67;;;2.93;;
5171;SDS011;2605;49.770;9.868;2022-08-11T13:37:10;3.50;;;3.20;;
5171;SDS011;2605;49.770;9.868;2022-08-11T13:39:39;3.50;;;3.10;;
5171;SDS011;2605;49.770;9.868;2022-08-11T13:42:11;10.90;;;2.80;;
5171;SDS011;2605;49.770;9.868;2022-08-11T13:44:39;5.43;;;3.10;;
5171;SDS011;2605;49.770;9.868;2022-08-11T13:47:06;3.60;;;2.70;;
5171;SDS011;2605;49.770;9.868;2022-08-11T13:49:36;3.30;;;3.10;;
5171;SDS011;2605;49.770;9.868;2022-08-11T13:52:04;3.77;;;3.27;;
5171;SDS011;2605;49.770;9.868;2022-08-11T13:54:31;3.23;;;3.00;;
5171;SDS011;2605;49.770;9.868;2022-08-11T13:57:00;3.23;;;3.03;;
5171;SDS011;2605;49.770;9.868;2022-08-11T13:59:28;3.20;;;2.73;;
5171;SDS011;2605;49.770;9.868;2022-08-11T14:01:55;3.83;;;3.30;;
5171;SDS011;2605;49.770;9.868;2022-08-11T14:07:05;3.60;;;3.30;;
5171;SDS011;2605;49.770;9.868;2022-08-11T14:09:34;5.80;;;3.13;;
5171;SDS011;2605;49.770;9.868;2022-08-11T14:12:02;4.10;;;2.87;;
5171;SDS011;2605;49.770;9.868;2022-08-11T14:15:13;3.33;;;2.80;;
5171;SDS011;2605;49.770;9.868;2022-08-11T14:17:44;3.40;;;3.10;;
5171;SDS011;2605;49.770;9.868;2022-08-11T14:20:27;3.83;;;3.60;;
5171;SDS011;2605;49.770;9.868;2022-08-11T14:23:19;4.23;;;3.37;;
5171;SDS011;2605;49.770;9.868;2022-08-11T14:26:02;7.43;;;3.27;;
5171;SDS011;2605;49.770;9.868;2022-08-11T14:28:56;3.30;;;3.20;;
5171;SDS011;2605;49.770;9.868;2022-08-11T14:31:30;3.80;;;3.70;;
5171;SDS011;2605;49.770;9.868;2022-08-11T14:34:01;3.90;;;3.70;;
5171;SDS011;2605;49.770;9.868;2022-08-11T14:36:30;3.72;;;3.53;;
5171;SDS011;2605;49.770;9.868;2022-08-11T14:38:59;4.25;;;3.95;;
5171;SDS011;2605;49.770;9.868;2022-08-11T14:41:42;4.25;;;4.05;;
5171;SDS011;2605;49.770;9.868;2022-08-11T14:44:31;4.85;;;4.65;;
5171;SDS011;2605;49.770;9.868;2022-08-11T14:47:18;5.22;;;4.82;;
5171;SDS011;2605;49.770;9.868;2022-08-11T14:49:44;5.85;;;4.70;;
5171;SDS011;2605;49.770;9.868;2022-08-11T14:52:14;5.53;;;5.25;;
5171;SDS011;2605;49.770;9.868;2022-08-11T14:54:42;5.45;;;5.18;;
5171;SDS011;2605;49.770;9.868;2022-08-11T14:57:28;6.18;;;5.97;;
5171;SDS011;2605;49.770;9.868;2022-08-11T14:59:57;6.55;;;6.25;;
5171;SDS011;2605;49.770;9.868;2022-08-11T15:02:25;5.32;;;5.13;;
5171;SDS011;2605;49.770;9.868;2022-08-11T15:05:10;5.95;;;5.63;;
5171;SDS011;2605;49.770;9.868;2022-08-11T15:07:36;5.80;;;5.40;;
5171;SDS011;2605;49.770;9.868;2022-08-11T15:10:06;5.80;;;5.60;;
5171;SDS011;2605;49.770;9.868;2022-08-11T15:12:34;6.18;;;5.70;;
5171;SDS011;2605;49.770;9.868;2022-08-11T15:15:02;6.43;;;6.13;;
5171;SDS011;2605;49.770;9.868;2022-08-11T15:17:49;6.00;;;5.78;;
5171;SDS011;2605;49.770;9.868;2022-08-11T15:20:17;6.22;;;5.85;;
5171;SDS011;2605;49.770;9.868;2022-08-11T15:23:02;6.38;;;5.88;;
5171;SDS011;2605;49.770;9.868;2022-08-11T15:25:50;6.07;;;5.78;;
5171;SDS011;2605;49.770;9.868;2022-08-11T15:28:20;5.85;;;5.55;;
5171;SDS011;2605;49.770;9.868;2022-08-11T15:31:06;5.60;;;5.40;;
5171;SDS011;2605;49.770;9.868;2022-08-11T15:33:52;5.80;;;5.50;;
5171;SDS011;2605;49.770;9.868;2022-08-11T15:36:39;6.18;;;5.53;;
5171;SDS011;2605;49.770;9.868;2022-08-11T15:39:29;5.50;;;5.30;;
5171;SDS011;2605;49.770;9.868;2022-08-11T15:42:25;6.15;;;5.68;;
5171;SDS011;2605;49.770;9.868;2022-08-11T15:45:11;5.50;;;4.93;;
5171;SDS011;2605;49.770;9.868;2022-08-11T15:48:02;6.25;;;5.95;;
5171;SDS011;2605;49.770;9.868;2022-08-11T15:50:37;6.57;;;6.18;;
5171;SDS011;2605;49.770;9.868;2022-08-11T15:53:07;5.95;;;5.55;;
5171;SDS011;2605;49.770;9.868;2022-08-11T15:55:36;5.97;;;5.70;;
5171;SDS011;2605;49.770;9.868;2022-08-11T15:58:05;6.18;;;5.97;;
5171;SDS011;2605;49.770;9.868;2022-08-11T16:00:51;6.40;;;6.10;;
5171;SDS011;2605;49.770;9.868;2022-08-11T16:03:48;9.40;;;6.82;;
5171;SDS011;2605;49.770;9.868;2022-08-11T16:09:19;6.97;;;6.78;;
5171;SDS011;2605;49.770;9.868;2022-08-11T16:11:48;7.70;;;7.10;;
5171;SDS011;2605;49.770;9.868;2022-08-11T16:14:16;6.65;;;6.45;;
5171;SDS011;2605;49.770;9.868;2022-08-11T16:17:10;6.82;;;6.43;;
5171;SDS011;2605;49.770;9.868;2022-08-11T16:19:39;7.53;;;7.25;;
5171;SDS011;2605;49.770;9.868;2022-08-11T16:22:08;7.82;;;7.53;;
5171;SDS011;2605;49.770;9.868;2022-08-11T16:24:37;7.45;;;7.07;;
5171;SDS011;2605;49.770;9.868;2022-08-11T16:27:09;7.65;;;7.25;;
5171;SDS011;2605;49.770;9.868;2022-08-11T16:29:39;7.30;;;7.00;;
5171;SDS011;2605;49.770;9.868;2022-08-11T16:32:08;8.45;;;8.00;;
5171;SDS011;2605;49.770;9.868;2022-08-11T16:34:51;6.82;;;6.53;;
5171;SDS011;2605;49.770;9.868;2022-08-11T16:37:41;6.40;;;6.07;;
5171;SDS011;2605;49.770;9.868;2022-08-11T16:40:27;6.00;;;5.70;;
5171;SDS011;2605;49.770;9.868;2022-08-11T16:42:54;6.80;;;6.40;;
5171;SDS011;2605;49.770;9.868;2022-08-11T16:45:44;6.93;;;6.38;;
5171;SDS011;2605;49.770;9.868;2022-08-11T16:48:30;6.70;;;6.30;;
5171;SDS011;2605;49.770;9.868;2022-08-11T16:50:59;6.47;;;5.93;;
5171;SDS011;2605;49.770;9.868;2022-08-11T16:53:26;5.75;;;5.45;;
5171;SDS011;2605;49.770;9.868;2022-08-11T16:55:53;6.50;;;6.05;;
5171;SDS011;2605;49.770;9.868;2022-08-11T16:58:22;5.35;;;5.25;;
5171;SDS011;2605;49.770;9.868;2022-08-11T17:01:06;6.28;;;5.60;;
5171;SDS011;2605;49.770;9.868;2022-08-11T17:03:34;5.90;;;5.70;;
5171;SDS011;2605;49.770;9.868;2022-08-11T17:06:28;5.70;;;5.38;;
5171;SDS011;2605;49.770;9.868;2022-08-11T17:09:13;5.13;;;4.82;;
5171;SDS011;2605;49.770;9.868;2022-08-11T17:12:04;4.63;;;4.38;;
5171;SDS011;2605;49.770;9.868;2022-08-11T17:14:54;5.25;;;4.57;;
5171;SDS011;2605;49.770;9.868;2022-08-11T17:17:32;4.63;;;4.43;;
5171;SDS011;2605;49.770;9.868;2022-08-11T17:20:04;8.25;;;4.10;;
5171;SDS011;2605;49.770;9.868;2022-08-11T17:22:34;4.43;;;4.25;;
5171;SDS011;2605;49.770;9.868;2022-08-11T17:25:20;3.92;;;3.72;;
5171;SDS011;2605;49.770;9.868;2022-08-11T17:27:48;4.10;;;3.80;;
5171;SDS011;2605;49.770;9.868;2022-08-11T17:30:16;4.35;;;4.03;;
5171;SDS011;2605;49.770;9.868;2022-08-11T17:32:44;5.93;;;3.78;;
5171;SDS011;2605;49.770;9.868;2022-08-11T17:35:38;3.67;;;3.45;;
5171;SDS011;2605;49.770;9.868;2022-08-11T17:38:09;4.30;;;4.10;;
5171;SDS011;2605;49.770;9.868;2022-08-11T17:40:42;4.43;;;3.80;;
5171;SDS011;2605;49.770;9.868;2022-08-11T17:43:29;5.20;;;4.13;;
5171;SDS011;2605;49.770;9.868;2022-08-11T17:46:15;3.90;;;3.70;;
5171;SDS011;2605;49.770;9.868;2022-08-11T17:48:59;4.53;;;3.70;;
5171;SDS011;2605;49.770;9.868;2022-08-11T17:51:26;3.60;;;3.40;;
5171;SDS011;2605;49.770;9.868;2022-08-11T17:54:11;3.43;;;3.23;;
5171;SDS011;2605;49.770;9.868;2022-08-11T17:56:56;4.13;;;3.80;;
5171;SDS011;2605;49.770;9.868;2022-08-11T17:59:41;3.30;;;3.10;;
5171;SDS011;2605;49.770;9.868;2022-08-11T18:02:18;3.57;;;3.37;;
5171;SDS011;2605;49.770;9.868;2022-08-11T18:05:09;3.77;;;3.57;;
5171;SDS011;2605;49.770;9.868;2022-08-11T18:07:36;3.30;;;3.20;;
5171;SDS011;2605;49.770;9.868;2022-08-11T18:10:22;3.53;;;3.30;;
5171;SDS011;2605;49.770;9.868;2022-08-11T18:13:08;3.17;;;2.97;;
5171;SDS011;2605;49.770;9.868;2022-08-11T18:15:54;3.80;;;3.50;;
5171;SDS011;2605;49.770;9.868;2022-08-11T18:18:38;3.80;;;3.00;;
5171;SDS011;2605;49.770;9.868;2022-08-11T18:21:22;3.57;;;3.27;;
5171;SDS011;2605;49.770;9.868;2022-08-11T18:24:09;2.90;;;2.80;;
5171;SDS011;2605;49.770;9.868;2022-08-11T18:26:57;3.60;;;3.30;;
5171;SDS011;2605;49.770;9.868;2022-08-11T18:29:44;3.33;;;3.03;;
5171;SDS011;2605;49.770;9.868;2022-08-11T18:32:30;3.20;;;2.90;;
5171;SDS011;2605;49.770;9.868;2022-08-11T18:35:17;4.47;;;3.10;;
5171;SDS011;2605;49.770;9.868;2022-08-11T18:38:03;4.23;;;2.60;;
5171;SDS011;2605;49.770;9.868;2022-08-11T18:40:51;5.53;;;3.07;;
5171;SDS011;2605;49.770;9.868;2022-08-11T18:43:36;4.47;;;2.83;;
5171;SDS011;2605;49.770;9.868;2022-08-11T18:46:24;3.97;;;3.40;;
5171;SDS011;2605;49.770;9.868;2022-08-11T18:49:11;3.27;;;2.73;;
5171;SDS011;2605;49.770;9.868;2022-08-11T18:51:57;10.60;;;2.90;;